sensor_id;sensor_type;location;lat;lon;timestamp;pressure;altitude;pressure_sealevel;temperature;humidity
2188;BME280;1100;52.014;8.540;2023-02-19T00:01:12;100082.94;;;7.37;100.00
2188;BME280;1100;52.014;8.540;2023-02-19T00:03:39;100073.09;;;7.35;100.00
2188;BME280;1100;52.014;8.540;2023-02-19T00:06:06;100072.72;;;7.33;100.00
2188;BME280;1100;52.014;8.540;2023-02-19T00:08:33;100074.34;;;7.31;100.00
2188;BME280;1100;52.014;8.540;2023-02-19T00:11:03;100082.22;;;7.32;100.00
2188;BME280;1100;52.014;8.540;2023-02-19T00:13:29;100079.06;;;7.30;100.00
2188;BME280;1100;52.014;8.540;2023-02-19T00:15:55;100079.88;;;7.31;100.00
2188;BME280;1100;52.014;8.540;2023-02-19T00:18:20;100077.53;;;7.29;100.00
2188;BME280;1100;52.014;8.540;2023-02-19T00:20:46;100077.13;;;7.27;100.00
2188;BME280;1100;52.014;8.540;2023-02-19T00:23:11;100071.22;;;7.25;100.00
2188;BME280;1100;52.014;8.540;2023-02-19T00:25:36;100057.41;;;7.25;100.00
2188;BME280;1100;52.014;8.540;2023-02-19T00:28:02;100049.94;;;7.22;100.00
2188;BME280;1100;52.014;8.540;2023-02-19T00:30:28;100055.91;;;7.20;100.00
2188;BME280;1100;52.014;8.540;2023-02-19T00:32:53;100051.16;;;7.21;100.00
2188;BME280;1100;52.014;8.540;2023-02-19T00:35:19;100050.03;;;7.18;100.00
2188;BME280;1100;52.014;8.540;2023-02-19T00:37:45;100058.72;;;7.17;100.00
2188;BME280;1100;52.014;8.540;2023-02-19T00:40:10;100053.53;;;7.19;100.00
2188;BME280;1100;52.014;8.540;2023-02-19T00:42:35;100051.94;;;7.21;100.00
2188;BME280;1100;52.014;8.540;2023-02-19T00:45:01;100042.88;;;7.21;100.00
2188;BME280;1100;52.014;8.540;2023-02-19T00:47:26;100044.41;;;7.22;100.00
2188;BME280;1100;52.014;8.540;2023-02-19T00:49:51;100047.97;;;7.22;100.00
2188;BME280;1100;52.014;8.540;2023-02-19T00:52:16;100030.97;;;7.24;100.00
2188;BME280;1100;52.014;8.540;2023-02-19T00:54:42;100038.06;;;7.25;100.00
2188;BME280;1100;52.014;8.540;2023-02-19T00:57:07;100038.44;;;7.27;100.00
2188;BME280;1100;52.014;8.540;2023-02-19T00:59:32;100042.00;;;7.28;100.00
2188;BME280;1100;52.014;8.540;2023-02-19T01:01:58;100032.47;;;7.29;100.00
2188;BME280;1100;52.014;8.540;2023-02-19T01:04:23;100042.72;;;7.32;100.00
2188;BME280;1100;52.014;8.540;2023-02-19T01:06:48;100026.91;;;7.32;100.00
2188;BME280;1100;52.014;8.540;2023-02-19T01:09:14;100029.69;;;7.32;100.00
2188;BME280;1100;52.014;8.540;2023-02-19T01:11:39;100034.78;;;7.34;100.00
2188;BME280;1100;52.014;8.540;2023-02-19T01:14:04;100030.81;;;7.35;100.00
2188;BME280;1100;52.014;8.540;2023-02-19T01:16:30;100021.31;;;7.36;100.00
2188;BME280;1100;52.014;8.540;2023-02-19T01:18:56;100029.59;;;7.36;100.00
2188;BME280;1100;52.014;8.540;2023-02-19T01:21:24;100042.66;;;7.35;100.00
2188;BME280;1100;52.014;8.540;2023-02-19T01:23:50;100036.34;;;7.35;100.00
2188;BME280;1100;52.014;8.540;2023-02-19T01:26:18;100053.72;;;7.35;100.00
2188;BME280;1100;52.014;8.540;2023-02-19T01:28:45;100015.34;;;7.38;100.00
2188;BME280;1100;52.014;8.540;2023-02-19T01:31:22;100033.53;;;7.39;100.00
2188;BME280;1100;52.014;8.540;2023-02-19T01:33:50;100046.94;;;7.40;100.00
2188;BME280;1100;52.014;8.540;2023-02-19T01:36:16;100037.00;;;7.43;100.00
2188;BME280;1100;52.014;8.540;2023-02-19T01:38:42;100037.00;;;7.43;100.00
2188;BME280;1100;52.014;8.540;2023-02-19T01:41:11;100037.81;;;7.43;100.00
2188;BME280;1100;52.014;8.540;2023-02-19T01:44:03;100040.56;;;7.43;100.00
2188;BME280;1100;52.014;8.540;2023-02-19T01:46:34;100034.53;;;7.48;100.00
2188;BME280;1100;52.014;8.540;2023-02-19T01:49:05;100036.88;;;7.50;100.00
2188;BME280;1100;52.014;8.540;2023-02-19T01:51:32;100036.88;;;7.50;100.00
2188;BME280;1100;52.014;8.540;2023-02-19T01:54:00;100036.06;;;7.53;100.00
2188;BME280;1100;52.014;8.540;2023-02-19T01:56:27;100031.28;;;7.57;100.00
2188;BME280;1100;52.014;8.540;2023-02-19T01:58:53;100022.53;;;7.59;100.00
2188;BME280;1100;52.014;8.540;2023-02-19T02:01:18;100025.66;;;7.61;100.00
2188;BME280;1100;52.014;8.540;2023-02-19T02:03:45;100036.69;;;7.65;100.00
2188;BME280;1100;52.014;8.540;2023-02-19T02:08:41;100034.28;;;7.67;100.00
2188;BME280;1100;52.014;8.540;2023-02-19T02:11:25;100025.19;;;7.66;100.00
2188;BME280;1100;52.014;8.540;2023-02-19T02:13:52;100028.75;;;7.67;100.00
2188;BME280;1100;52.014;8.540;2023-02-19T02:16:31;100034.28;;;7.67;100.00
2188;BME280;1100;52.014;8.540;2023-02-19T02:24:45;100038.97;;;7.70;100.00
2188;BME280;1100;52.014;8.540;2023-02-19T02:33:03;100033.47;;;7.66;100.00
2188;BME280;1100;52.014;8.540;2023-02-19T02:35:36;100033.03;;;7.71;100.00
2188;BME280;1100;52.014;8.540;2023-02-19T02:38:06;100032.66;;;7.69;100.00
2188;BME280;1100;52.014;8.540;2023-02-19T02:40:32;100025.13;;;7.70;100.00
2188;BME280;1100;52.014;8.540;2023-02-19T02:42:59;100023.13;;;7.70;100.00
2188;BME280;1100;52.014;8.540;2023-02-19T02:45:27;100025.91;;;7.70;100.00
2188;BME280;1100;52.014;8.540;2023-02-19T02:48:01;100027.53;;;7.68;100.00
2188;BME280;1100;52.014;8.540;2023-02-19T02:51:17;100030.31;;;7.68;100.00
2188;BME280;1100;52.014;8.540;2023-02-19T02:53:34;100034.28;;;7.67;100.00
2188;BME280;1100;52.014;8.540;2023-02-19T02:56:22;100034.69;;;7.65;100.00
2188;BME280;1100;52.014;8.540;2023-02-19T02:58:49;100030.34;;;7.64;100.00
2188;BME280;1100;52.014;8.540;2023-02-19T03:01:26;100032.69;;;7.66;100.00
2188;BME280;1100;52.014;8.540;2023-02-19T03:04:16;100021.28;;;7.64;100.00
2188;BME280;1100;52.014;8.540;2023-02-19T03:06:46;100031.13;;;7.65;100.00
2188;BME280;1100;52.014;8.540;2023-02-19T03:09:23;100027.59;;;7.64;100.00
2188;BME280;1100;52.014;8.540;2023-02-19T03:11:56;100024.81;;;7.64;100.00
2188;BME280;1100;52.014;8.540;2023-02-19T03:14:46;100024.81;;;7.64;100.00
2188;BME280;1100;52.014;8.540;2023-02-19T03:20:20;100020.91;;;7.62;100.00
2188;BME280;1100;52.014;8.540;2023-02-19T03:22:49;100024.91;;;7.60;100.00
2188;BME280;1100;52.014;8.540;2023-02-19T03:25:27;100028.06;;;7.59;100.00
2188;BME280;1100;52.014;8.540;2023-02-19T03:28:15;100029.63;;;7.60;100.00
2188;BME280;1100;52.014;8.540;2023-02-19T03:30:49;100035.88;;;7.64;100.00
2188;BME280;1100;52.014;8.540;2023-02-19T03:33:26;100035.13;;;7.64;100.00
2188;BME280;1100;52.014;8.540;2023-02-19T03:36:00;100048.56;;;7.62;100.00
2188;BME280;1100;52.014;8.540;2023-02-19T03:38:40;100042.63;;;7.63;100.00
2188;BME280;1100;52.014;8.540;2023-02-19T03:44:20;100044.97;;;7.65;100.00
2188;BME280;1100;52.014;8.540;2023-02-19T03:46:59;100044.97;;;7.65;100.00
2188;BME280;1100;52.014;8.540;2023-02-19T03:49:55;100051.72;;;7.64;100.00
2188;BME280;1100;52.014;8.540;2023-02-19T03:55:22;100048.22;;;7.59;100.00
2188;BME280;1100;52.014;8.540;2023-02-19T03:57:56;100068.78;;;7.58;100.00
2188;BME280;1100;52.014;8.540;2023-02-19T04:00:37;100061.31;;;7.55;100.00
2188;BME280;1100;52.014;8.540;2023-02-19T04:03:45;100053.50;;;7.50;100.00
2188;BME280;1100;52.014;8.540;2023-02-19T04:06:16;100057.09;;;7.47;100.00
2188;BME280;1100;52.014;8.540;2023-02-19T04:08:48;100069.38;;;7.46;100.00
2188;BME280;1100;52.014;8.540;2023-02-19T04:11:15;100067.81;;;7.45;100.00
2188;BME280;1100;52.014;8.540;2023-02-19T04:13:45;100069.00;;;7.44;100.00
2188;BME280;1100;52.014;8.540;2023-02-19T04:16:17;100084.41;;;7.45;100.00
2188;BME280;1100;52.014;8.540;2023-02-19T04:18:46;100076.94;;;7.42;100.00
2188;BME280;1100;52.014;8.540;2023-02-19T04:21:14;100095.09;;;7.43;100.00
2188;BME280;1100;52.014;8.540;2023-02-19T04:23:42;100105.44;;;7.39;100.00
2188;BME280;1100;52.014;8.540;2023-02-19T04:26:09;100097.13;;;7.39;100.00
2188;BME280;1100;52.014;8.540;2023-02-19T04:28:37;100102.28;;;7.37;100.00
2188;BME280;1100;52.014;8.540;2023-02-19T04:31:02;100093.94;;;7.40;100.00
2188;BME280;1100;52.014;8.540;2023-02-19T04:33:28;100112.09;;;7.41;100.00
2188;BME280;1100;52.014;8.540;2023-02-19T04:35:53;100102.66;;;7.39;100.00
2188;BME280;1100;52.014;8.540;2023-02-19T04:38:18;100121.59;;;7.40;100.00
2188;BME280;1100;52.014;8.540;2023-02-19T04:40:44;100106.19;;;7.39;100.00
2188;BME280;1100;52.014;8.540;2023-02-19T04:43:09;100116.50;;;7.39;100.00
2188;BME280;1100;52.014;8.540;2023-02-19T04:45:37;100118.47;;;7.38;100.00
2188;BME280;1100;52.014;8.540;2023-02-19T04:48:02;100120.44;;;7.38;100.00
2188;BME280;1100;52.014;8.540;2023-02-19T04:50:27;100135.06;;;7.38;100.00
2188;BME280;1100;52.014;8.540;2023-02-19T04:52:53;100139.44;;;7.35;100.00
2188;BME280;1100;52.014;8.540;2023-02-19T04:55:18;100141.00;;;7.37;100.00
2188;BME280;1100;52.014;8.540;2023-02-19T04:57:43;100142.94;;;7.40;100.00
2188;BME280;1100;52.014;8.540;2023-02-19T05:00:11;100150.50;;;7.35;100.00
2188;BME280;1100;52.014;8.540;2023-02-19T05:02:37;100141.41;;;7.35;100.00
2188;BME280;1100;52.014;8.540;2023-02-19T05:05:03;100153.31;;;7.32;100.00
2188;BME280;1100;52.014;8.540;2023-02-19T05:07:28;100141.47;;;7.31;100.00
2188;BME280;1100;52.014;8.540;2023-02-19T05:09:53;100155.69;;;7.30;100.00
2188;BME280;1100;52.014;8.540;2023-02-19T05:12:19;100171.16;;;7.27;100.00
2188;BME280;1100;52.014;8.540;2023-02-19T05:14:44;100163.28;;;7.26;100.00
2188;BME280;1100;52.014;8.540;2023-02-19T05:17:10;100172.41;;;7.22;100.00
2188;BME280;1100;52.014;8.540;2023-02-19T05:19:35;100169.25;;;7.20;100.00
2188;BME280;1100;52.014;8.540;2023-02-19T05:22:00;100176.72;;;7.23;100.00
2188;BME280;1100;52.014;8.540;2023-02-19T05:24:25;100168.41;;;7.23;100.00
2188;BME280;1100;52.014;8.540;2023-02-19T05:26:52;100179.13;;;7.21;100.00
2188;BME280;1100;52.014;8.540;2023-02-19T05:29:17;100174.38;;;7.22;100.00
2188;BME280;1100;52.014;8.540;2023-02-19T05:31:43;100189.41;;;7.21;100.00
2188;BME280;1100;52.014;8.540;2023-02-19T05:34:08;100193.31;;;7.23;100.00
2188;BME280;1100;52.014;8.540;2023-02-19T05:36:33;100195.31;;;7.23;100.00
2188;BME280;1100;52.014;8.540;2023-02-19T05:39:01;100189.78;;;7.23;100.00
2188;BME280;1100;52.014;8.540;2023-02-19T05:41:28;100197.69;;;7.21;100.00
2188;BME280;1100;52.014;8.540;2023-02-19T05:43:54;100205.59;;;7.19;100.00
2188;BME280;1100;52.014;8.540;2023-02-19T05:46:22;100209.56;;;7.18;100.00
2188;BME280;1100;52.014;8.540;2023-02-19T05:48:49;100207.22;;;7.16;100.00
2188;BME280;1100;52.014;8.540;2023-02-19T05:51:17;100212.78;;;7.13;100.00
2188;BME280;1100;52.014;8.540;2023-02-19T05:53:43;100205.28;;;7.13;100.00
2188;BME280;1100;52.014;8.540;2023-02-19T05:58:45;100219.50;;;7.12;100.00
2188;BME280;1100;52.014;8.540;2023-02-19T06:01:16;100220.72;;;7.10;100.00
2188;BME280;1100;52.014;8.540;2023-02-19T06:03:41;100226.66;;;7.09;100.00
2188;BME280;1100;52.014;8.540;2023-02-19T06:06:07;100236.53;;;7.06;100.00
2188;BME280;1100;52.014;8.540;2023-02-19T06:08:32;100233.84;;;7.03;100.00
2188;BME280;1100;52.014;8.540;2023-02-19T06:10:57;100243.72;;;7.00;100.00
2188;BME280;1100;52.014;8.540;2023-02-19T06:13:22;100239.41;;;6.99;100.00
2188;BME280;1100;52.014;8.540;2023-02-19T06:15:48;100244.13;;;6.98;100.00
2188;BME280;1100;52.014;8.540;2023-02-19T06:18:13;100246.13;;;6.98;100.00
2188;BME280;1100;52.014;8.540;2023-02-19T06:20:38;100248.47;;;7.00;100.00
2188;BME280;1100;52.014;8.540;2023-02-19T06:23:04;100253.59;;;7.01;100.00
2188;BME280;1100;52.014;8.540;2023-02-19T06:25:29;100253.59;;;7.01;100.00
2188;BME280;1100;52.014;8.540;2023-02-19T06:27:54;100259.16;;;6.97;100.00
2188;BME280;1100;52.014;8.540;2023-02-19T06:30:19;100266.66;;;6.97;100.00
2188;BME280;1100;52.014;8.540;2023-02-19T06:32:45;100271.34;;;7.00;100.00
2188;BME280;1100;52.014;8.540;2023-02-19T06:35:10;100306.88;;;7.02;100.00
2188;BME280;1100;52.014;8.540;2023-02-19T06:37:35;100298.75;;;6.87;100.00
2188;BME280;1100;52.014;8.540;2023-02-19T06:40:01;100313.19;;;6.53;100.00
2188;BME280;1100;52.014;8.540;2023-02-19T06:42:26;100320.53;;;6.17;100.00
2188;BME280;1100;52.014;8.540;2023-02-19T06:44:51;100332.09;;;5.86;100.00
2188;BME280;1100;52.014;8.540;2023-02-19T06:47:17;100334.94;;;5.65;100.00
2188;BME280;1100;52.014;8.540;2023-02-19T06:49:42;100342.84;;;5.41;100.00
2188;BME280;1100;52.014;8.540;2023-02-19T06:52:07;100354.28;;;5.21;100.00
2188;BME280;1100;52.014;8.540;2023-02-19T06:54:33;100357.09;;;5.06;100.00
2188;BME280;1100;52.014;8.540;2023-02-19T06:56:59;100365.34;;;4.92;100.00
2188;BME280;1100;52.014;8.540;2023-02-19T06:59:25;100373.19;;;4.82;100.00
2188;BME280;1100;52.014;8.540;2023-02-19T07:01:50;100382.25;;;4.79;100.00
2188;BME280;1100;52.014;8.540;2023-02-19T07:04:16;100392.09;;;4.73;100.00
2188;BME280;1100;52.014;8.540;2023-02-19T07:06:41;100401.50;;;4.68;100.00
2188;BME280;1100;52.014;8.540;2023-02-19T07:09:07;100412.13;;;4.63;100.00
2188;BME280;1100;52.014;8.540;2023-02-19T07:11:35;100421.56;;;4.58;100.00
2188;BME280;1100;52.014;8.540;2023-02-19T07:14:02;100431.38;;;4.55;100.00
2188;BME280;1100;52.014;8.540;2023-02-19T07:16:28;100430.19;;;4.49;100.00
2188;BME280;1100;52.014;8.540;2023-02-19T07:18:58;100447.84;;;4.44;100.00
2188;BME280;1100;52.014;8.540;2023-02-19T07:21:25;100451.00;;;4.39;100.00
2188;BME280;1100;52.014;8.540;2023-02-19T07:23:51;100452.16;;;4.34;100.00
2188;BME280;1100;52.014;8.540;2023-02-19T07:26:18;100461.19;;;4.31;100.00
2188;BME280;1100;52.014;8.540;2023-02-19T07:28:46;100474.53;;;4.29;100.00
2188;BME280;1100;52.014;8.540;2023-02-19T07:31:13;100471.78;;;4.26;100.00
2188;BME280;1100;52.014;8.540;2023-02-19T07:33:42;100479.66;;;4.23;100.00
2188;BME280;1100;52.014;8.540;2023-02-19T07:36:08;100481.56;;;4.16;100.00
2188;BME280;1100;52.014;8.540;2023-02-19T07:38:33;100489.00;;;4.11;100.00
2188;BME280;1100;52.014;8.540;2023-02-19T07:41:00;100498.84;;;4.13;100.00
2188;BME280;1100;52.014;8.540;2023-02-19T07:43:30;100494.88;;;4.10;100.00
2188;BME280;1100;52.014;8.540;2023-02-19T07:45:56;100508.25;;;4.08;100.00
2188;BME280;1100;52.014;8.540;2023-02-19T07:48:21;100514.94;;;4.10;100.00
2188;BME280;1100;52.014;8.540;2023-02-19T07:50:54;100520.44;;;4.10;100.00
2188;BME280;1100;52.014;8.540;2023-02-19T07:53:21;100520.88;;;4.13;100.00
2188;BME280;1100;52.014;8.540;2023-02-19T07:55:47;100522.44;;;4.14;100.00
2188;BME280;1100;52.014;8.540;2023-02-19T07:58:12;100522.84;;;4.16;100.00
2188;BME280;1100;52.014;8.540;2023-02-19T08:00:38;100530.34;;;4.22;100.00
2188;BME280;1100;52.014;8.540;2023-02-19T08:03:04;100528.78;;;4.25;100.00
2188;BME280;1100;52.014;8.540;2023-02-19T08:05:32;100532.72;;;4.28;100.00
2188;BME280;1100;52.014;8.540;2023-02-19T08:07:59;100525.28;;;4.28;100.00
2188;BME280;1100;52.014;8.540;2023-02-19T08:10:25;100522.53;;;4.28;100.00
2188;BME280;1100;52.014;8.540;2023-02-19T08:13:11;100531.16;;;4.30;100.00
2188;BME280;1100;52.014;8.540;2023-02-19T08:15:54;100535.91;;;4.33;100.00
2188;BME280;1100;52.014;8.540;2023-02-19T08:18:23;100546.13;;;4.36;100.00
2188;BME280;1100;52.014;8.540;2023-02-19T08:20:49;100545.75;;;4.38;100.00
2188;BME280;1100;52.014;8.540;2023-02-19T08:23:14;100542.22;;;4.38;100.00
2188;BME280;1100;52.014;8.540;2023-02-19T08:25:40;100538.25;;;4.31;100.00
2188;BME280;1100;52.014;8.540;2023-02-19T08:28:07;100545.31;;;4.29;100.00
2188;BME280;1100;52.014;8.540;2023-02-19T08:30:33;100553.19;;;4.30;100.00
2188;BME280;1100;52.014;8.540;2023-02-19T08:33:00;100556.31;;;4.29;100.00
2188;BME280;1100;52.014;8.540;2023-02-19T08:35:26;100566.94;;;4.30;100.00
2188;BME280;1100;52.014;8.540;2023-02-19T08:37:56;100568.53;;;4.35;100.00
2188;BME280;1100;52.014;8.540;2023-02-19T08:40:21;100568.16;;;4.33;100.00
2188;BME280;1100;52.014;8.540;2023-02-19T08:42:47;100572.44;;;4.30;100.00
2188;BME280;1100;52.014;8.540;2023-02-19T08:45:12;100571.22;;;4.24;100.00
2188;BME280;1100;52.014;8.540;2023-02-19T08:47:38;100586.16;;;4.23;100.00
2188;BME280;1100;52.014;8.540;2023-02-19T08:50:05;100590.09;;;4.22;100.00
2188;BME280;1100;52.014;8.540;2023-02-19T08:52:31;100594.81;;;4.21;100.00
2188;BME280;1100;52.014;8.540;2023-02-19T08:54:56;100595.63;;;4.22;100.00
2188;BME280;1100;52.014;8.540;2023-02-19T08:57:22;100608.94;;;4.20;100.00
2188;BME280;1100;52.014;8.540;2023-02-19T08:59:47;100618.00;;;4.20;100.00
2188;BME280;1100;52.014;8.540;2023-02-19T09:02:13;100624.28;;;4.21;100.00
2188;BME280;1100;52.014;8.540;2023-02-19T09:04:38;100616.78;;;4.18;100.00
2188;BME280;1100;52.014;8.540;2023-02-19T09:07:04;100617.56;;;4.15;100.00
2188;BME280;1100;52.014;8.540;2023-02-19T09:09:32;100625.03;;;4.18;100.00
2188;BME280;1100;52.014;8.540;2023-02-19T09:11:58;100624.31;;;4.24;100.00
2188;BME280;1100;52.014;8.540;2023-02-19T09:14:23;100620.84;;;4.31;100.00
2188;BME280;1100;52.014;8.540;2023-02-19T09:16:48;100625.97;;;4.36;100.00
2188;BME280;1100;52.014;8.540;2023-02-19T09:19:14;100635.81;;;4.38;100.00
2188;BME280;1100;52.014;8.540;2023-02-19T09:21:39;100648.75;;;4.33;100.00
2188;BME280;1100;52.014;8.540;2023-02-19T09:24:07;100650.69;;;4.29;100.00
2188;BME280;1100;52.014;8.540;2023-02-19T09:26:32;100656.97;;;4.26;100.00
2188;BME280;1100;52.014;8.540;2023-02-19T09:28:58;100668.78;;;4.30;100.00
2188;BME280;1100;52.014;8.540;2023-02-19T09:31:23;100665.25;;;4.33;100.00
2188;BME280;1100;52.014;8.540;2023-02-19T09:33:48;100664.53;;;4.40;100.00
2188;BME280;1100;52.014;8.540;2023-02-19T09:36:15;100664.13;;;4.38;100.00
2188;BME280;1100;52.014;8.540;2023-02-19T09:38:41;100680.63;;;4.38;100.00
2188;BME280;1100;52.014;8.540;2023-02-19T09:41:11;100687.75;;;4.39;100.00
2188;BME280;1100;52.014;8.540;2023-02-19T09:43:38;100677.50;;;4.36;100.00
2188;BME280;1100;52.014;8.540;2023-02-19T09:46:10;100681.78;;;4.33;100.00
2188;BME280;1100;52.014;8.540;2023-02-19T09:48:41;100684.13;;;4.31;100.00
2188;BME280;1100;52.014;8.540;2023-02-19T09:51:08;100704.16;;;4.28;100.00
2188;BME280;1100;52.014;8.540;2023-02-19T09:53:39;100714.00;;;4.29;100.00
2188;BME280;1100;52.014;8.540;2023-02-19T09:56:06;100719.94;;;4.31;100.00
2188;BME280;1100;52.014;8.540;2023-02-19T09:58:42;100724.25;;;4.32;100.00
2188;BME280;1100;52.014;8.540;2023-02-19T10:01:10;100737.31;;;4.43;100.00
2188;BME280;1100;52.014;8.540;2023-02-19T10:03:38;100734.25;;;4.55;100.00
2188;BME280;1100;52.014;8.540;2023-02-19T10:06:13;100735.53;;;4.69;100.00
2188;BME280;1100;52.014;8.540;2023-02-19T10:08:40;100739.91;;;4.77;100.00
2188;BME280;1100;52.014;8.540;2023-02-19T10:11:10;100745.47;;;4.81;100.00
2188;BME280;1100;52.014;8.540;2023-02-19T10:13:40;100755.03;;;5.05;100.00
2188;BME280;1100;52.014;8.540;2023-02-19T10:16:10;100762.56;;;5.12;100.00
2188;BME280;1100;52.014;8.540;2023-02-19T10:18:41;100766.19;;;5.27;100.00
2188;BME280;1100;52.014;8.540;2023-02-19T10:21:11;100783.53;;;5.28;100.00
2188;BME280;1100;52.014;8.540;2023-02-19T10:23:39;100778.81;;;5.28;100.00
2188;BME280;1100;52.014;8.540;2023-02-19T10:26:05;100789.00;;;5.20;100.00
2188;BME280;1100;52.014;8.540;2023-02-19T10:28:34;100781.88;;;5.12;100.00
2188;BME280;1100;52.014;8.540;2023-02-19T10:31:02;100785.44;;;5.16;100.00
2188;BME280;1100;52.014;8.540;2023-02-19T10:33:29;100787.03;;;5.21;100.00
2188;BME280;1100;52.014;8.540;2023-02-19T10:35:59;100803.22;;;5.26;100.00
2188;BME280;1100;52.014;8.540;2023-02-19T10:38:29;100802.03;;;5.23;100.00
2188;BME280;1100;52.014;8.540;2023-02-19T10:41:01;100822.47;;;5.19;100.00
2188;BME280;1100;52.014;8.540;2023-02-19T10:43:31;100817.34;;;5.17;100.00
2188;BME280;1100;52.014;8.540;2023-02-19T10:46:01;100818.91;;;5.18;100.00
2188;BME280;1100;52.014;8.540;2023-02-19T10:48:30;100820.56;;;5.27;100.00
2188;BME280;1100;52.014;8.540;2023-02-19T10:51:01;100817.06;;;5.33;100.00
2188;BME280;1100;52.014;8.540;2023-02-19T10:53:45;100811.94;;;5.35;100.00
2188;BME280;1100;52.014;8.540;2023-02-19T10:56:27;100812.00;;;5.50;100.00
2188;BME280;1100;52.014;8.540;2023-02-19T10:59:25;100806.66;;;5.86;100.00
2188;BME280;1100;52.014;8.540;2023-02-19T11:04:20;100818.25;;;6.40;100.00
2188;BME280;1100;52.014;8.540;2023-02-19T11:06:46;100821.81;;;6.58;100.00
2188;BME280;1100;52.014;8.540;2023-02-19T11:09:33;100829.72;;;6.75;99.91
2188;BME280;1100;52.014;8.540;2023-02-19T11:12:01;100828.94;;;6.74;99.52
2188;BME280;1100;52.014;8.540;2023-02-19T11:14:30;100822.19;;;6.50;99.66
2188;BME280;1100;52.014;8.540;2023-02-19T11:16:57;100827.72;;;6.60;99.80
2188;BME280;1100;52.014;8.540;2023-02-19T11:19:27;100835.66;;;6.73;99.59
2188;BME280;1100;52.014;8.540;2023-02-19T11:21:53;100840.38;;;6.83;99.00
2188;BME280;1100;52.014;8.540;2023-02-19T11:24:35;100829.69;;;7.15;98.80
2188;BME280;1100;52.014;8.540;2023-02-19T11:27:04;100837.16;;;7.40;98.49
2188;BME280;1100;52.014;8.540;2023-02-19T11:29:31;100830.41;;;7.55;98.62
2188;BME280;1100;52.014;8.540;2023-02-19T11:34:43;100829.53;;;7.77;98.85
2188;BME280;1100;52.014;8.540;2023-02-19T11:37:17;100833.50;;;7.72;99.01
2188;BME280;1100;52.014;8.540;2023-02-19T11:39:46;100841.47;;;7.59;99.37
2188;BME280;1100;52.014;8.540;2023-02-19T11:53:02;100849.88;;;6.82;99.76
2188;BME280;1100;52.014;8.540;2023-02-19T11:55:51;100830.47;;;6.60;99.65
2188;BME280;1100;52.014;8.540;2023-02-19T11:58:42;100832.44;;;6.42;100.00
2188;BME280;1100;52.014;8.540;2023-02-19T12:01:21;100827.69;;;6.28;100.00
2188;BME280;1100;52.014;8.540;2023-02-19T12:04:12;100834.34;;;6.08;100.00
2188;BME280;1100;52.014;8.540;2023-02-19T12:06:58;100824.53;;;6.29;99.34
2188;BME280;1100;52.014;8.540;2023-02-19T12:09:40;100822.22;;;6.93;99.07
2188;BME280;1100;52.014;8.540;2023-02-19T12:12:20;100814.13;;;7.72;98.93
2188;BME280;1100;52.014;8.540;2023-02-19T12:14:55;100820.56;;;8.29;98.16
2188;BME280;1100;52.014;8.540;2023-02-19T12:32:11;100825.97;;;8.55;98.28
2188;BME280;1100;52.014;8.540;2023-02-19T12:37:44;100846.16;;;7.66;99.36
2188;BME280;1100;52.014;8.540;2023-02-19T12:40:29;100845.06;;;7.38;99.42
2188;BME280;1100;52.014;8.540;2023-02-19T12:43:03;100848.63;;;7.27;100.00
2188;BME280;1100;52.014;8.540;2023-02-19T12:45:35;100854.97;;;7.24;100.00
2188;BME280;1100;52.014;8.540;2023-02-19T12:48:07;100854.94;;;7.35;100.00
2188;BME280;1100;52.014;8.540;2023-02-19T12:50:36;100863.59;;;7.55;100.00
2188;BME280;1100;52.014;8.540;2023-02-19T12:53:27;100861.19;;;7.61;100.00
2188;BME280;1100;52.014;8.540;2023-02-19T12:55:55;100870.31;;;7.54;100.00
2188;BME280;1100;52.014;8.540;2023-02-19T12:58:34;100870.72;;;7.45;99.98
2188;BME280;1100;52.014;8.540;2023-02-19T13:01:02;100878.69;;;7.21;99.87
2188;BME280;1100;52.014;8.540;2023-02-19T13:03:43;100882.25;;;6.96;100.00
2188;BME280;1100;52.014;8.540;2023-02-19T13:06:27;100881.03;;;6.94;100.00
2188;BME280;1100;52.014;8.540;2023-02-19T13:09:19;100869.19;;;6.86;100.00
2188;BME280;1100;52.014;8.540;2023-02-19T13:11:57;100866.44;;;6.97;100.00
2188;BME280;1100;52.014;8.540;2023-02-19T13:14:25;100871.56;;;7.02;100.00
2188;BME280;1100;52.014;8.540;2023-02-19T13:16:57;100878.69;;;7.10;100.00
2188;BME280;1100;52.014;8.540;2023-02-19T13:19:24;100879.84;;;7.20;100.00
2188;BME280;1100;52.014;8.540;2023-02-19T13:21:58;100888.16;;;7.28;100.00
2188;BME280;1100;52.014;8.540;2023-02-19T13:24:45;100877.06;;;7.35;100.00
2188;BME280;1100;52.014;8.540;2023-02-19T13:30:20;100874.31;;;7.39;100.00
2188;BME280;1100;52.014;8.540;2023-02-19T13:35:55;100880.25;;;7.19;100.00
2188;BME280;1100;52.014;8.540;2023-02-19T13:38:25;100886.19;;;7.14;100.00
2188;BME280;1100;52.014;8.540;2023-02-19T13:40:55;100886.19;;;7.10;100.00
2188;BME280;1100;52.014;8.540;2023-02-19T13:45:56;100886.56;;;7.16;100.00
2188;BME280;1100;52.014;8.540;2023-02-19T13:50:49;100880.66;;;7.25;99.78
2188;BME280;1100;52.014;8.540;2023-02-19T14:04:19;100884.19;;;7.18;99.76
2188;BME280;1100;52.014;8.540;2023-02-19T14:19:55;100924.06;;;6.73;100.00
2188;BME280;1100;52.014;8.540;2023-02-19T14:25:26;100923.25;;;6.62;100.00
2188;BME280;1100;52.014;8.540;2023-02-19T14:27:55;100922.84;;;6.59;100.00
2188;BME280;1100;52.014;8.540;2023-02-19T14:30:23;100923.63;;;6.64;100.00
2188;BME280;1100;52.014;8.540;2023-02-19T14:32:49;100933.53;;;6.65;100.00
2188;BME280;1100;52.014;8.540;2023-02-19T14:35:22;100927.97;;;6.61;100.00
2188;BME280;1100;52.014;8.540;2023-02-19T14:37:50;100934.69;;;6.56;100.00
2188;BME280;1100;52.014;8.540;2023-02-19T14:40:20;100937.44;;;6.49;100.00
2188;BME280;1100;52.014;8.540;2023-02-19T14:42:48;100930.69;;;6.39;100.00
2188;BME280;1100;52.014;8.540;2023-02-19T14:45:16;100941.69;;;6.35;100.00
2188;BME280;1100;52.014;8.540;2023-02-19T14:47:44;100944.09;;;6.33;100.00
2188;BME280;1100;52.014;8.540;2023-02-19T14:50:27;100942.91;;;6.34;100.00
2188;BME280;1100;52.014;8.540;2023-02-19T14:53:13;100941.72;;;6.32;100.00
2188;BME280;1100;52.014;8.540;2023-02-19T14:55:40;100928.25;;;6.23;99.93
2188;BME280;1100;52.014;8.540;2023-02-19T14:58:11;100923.47;;;6.13;99.74
2188;BME280;1100;52.014;8.540;2023-02-19T15:00:40;100920.31;;;6.07;100.00
2188;BME280;1100;52.014;8.540;2023-02-19T15:03:23;100914.78;;;6.07;100.00